sensor_id;sensor_type;location;lat;lon;timestamp;P1;durP1;ratioP1;P2;durP2;ratioP2
77202;SDS011;66327;50.096;8.498;2024-03-02T00:00:54;9.07;;;4.57;;
77202;SDS011;66327;50.096;8.498;2024-03-02T00:03:20;8.57;;;4.70;;
77202;SDS011;66327;50.096;8.498;2024-03-02T00:05:50;9.65;;;4.78;;
77202;SDS011;66327;50.096;8.498;2024-03-02T00:08:20;8.05;;;4.10;;
77202;SDS011;66327;50.096;8.498;2024-03-02T00:10:48;8.40;;;4.15;;
77202;SDS011;66327;50.096;8.498;2024-03-02T00:13:15;7.57;;;4.57;;
77202;SDS011;66327;50.096;8.498;2024-03-02T00:18:12;8.43;;;4.55;;
77202;SDS011;66327;50.096;8.498;2024-03-02T00:20:41;9.40;;;4.78;;
77202;SDS011;66327;50.096;8.498;2024-03-02T00:23:08;8.43;;;3.95;;
77202;SDS011;66327;50.096;8.498;2024-03-02T00:25:38;8.25;;;4.35;;
77202;SDS011;66327;50.096;8.498;2024-03-02T00:28:10;10.07;;;4.00;;
77202;SDS011;66327;50.096;8.498;2024-03-02T00:33:05;6.13;;;3.67;;
77202;SDS011;66327;50.096;8.498;2024-03-02T00:35:33;9.38;;;4.72;;
77202;SDS011;66327;50.096;8.498;2024-03-02T00:38:03;7.47;;;4.50;;
77202;SDS011;66327;50.096;8.498;2024-03-02T00:40:30;7.75;;;4.43;;
77202;SDS011;66327;50.096;8.498;2024-03-02T00:42:56;10.65;;;4.35;;
77202;SDS011;66327;50.096;8.498;2024-03-02T00:45:23;10.52;;;4.88;;
77202;SDS011;66327;50.096;8.498;2024-03-02T00:47:51;8.95;;;4.47;;
77202;SDS011;66327;50.096;8.498;2024-03-02T00:50:17;8.52;;;4.35;;
77202;SDS011;66327;50.096;8.498;2024-03-02T00:52:55;9.40;;;4.13;;
77202;SDS011;66327;50.096;8.498;2024-03-02T00:55:22;8.05;;;4.78;;
77202;SDS011;66327;50.096;8.498;2024-03-02T00:57:48;10.38;;;4.97;;
77202;SDS011;66327;50.096;8.498;2024-03-02T01:00:14;9.60;;;4.95;;
77202;SDS011;66327;50.096;8.498;2024-03-02T01:02:42;8.07;;;4.47;;
77202;SDS011;66327;50.096;8.498;2024-03-02T01:07:37;10.85;;;3.78;;
77202;SDS011;66327;50.096;8.498;2024-03-02T01:10:04;10.25;;;4.72;;
77202;SDS011;66327;50.096;8.498;2024-03-02T01:12:30;8.07;;;4.40;;
77202;SDS011;66327;50.096;8.498;2024-03-02T01:14:56;8.65;;;4.32;;
77202;SDS011;66327;50.096;8.498;2024-03-02T01:17:23;9.38;;;4.40;;
77202;SDS011;66327;50.096;8.498;2024-03-02T01:19:49;11.35;;;5.20;;
77202;SDS011;66327;50.096;8.498;2024-03-02T01:22:15;7.97;;;4.40;;
77202;SDS011;66327;50.096;8.498;2024-03-02T01:24:42;8.80;;;5.00;;
77202;SDS011;66327;50.096;8.498;2024-03-02T01:27:08;8.82;;;4.53;;
77202;SDS011;66327;50.096;8.498;2024-03-02T01:29:34;9.18;;;4.85;;
77202;SDS011;66327;50.096;8.498;2024-03-02T01:32:01;9.43;;;4.13;;
77202;SDS011;66327;50.096;8.498;2024-03-02T01:34:27;9.60;;;4.90;;
77202;SDS011;66327;50.096;8.498;2024-03-02T01:36:54;9.25;;;4.85;;
77202;SDS011;66327;50.096;8.498;2024-03-02T01:39:20;10.23;;;4.10;;
77202;SDS011;66327;50.096;8.498;2024-03-02T01:41:46;9.23;;;4.57;;
77202;SDS011;66327;50.096;8.498;2024-03-02T01:44:13;8.80;;;4.35;;
77202;SDS011;66327;50.096;8.498;2024-03-02T01:46:39;8.40;;;4.47;;
77202;SDS011;66327;50.096;8.498;2024-03-02T01:49:06;7.88;;;4.00;;
77202;SDS011;66327;50.096;8.498;2024-03-02T01:51:32;8.45;;;4.45;;
77202;SDS011;66327;50.096;8.498;2024-03-02T01:53:58;10.30;;;4.80;;
77202;SDS011;66327;50.096;8.498;2024-03-02T01:56:25;10.13;;;4.50;;
77202;SDS011;66327;50.096;8.498;2024-03-02T01:58:51;10.90;;;4.53;;
77202;SDS011;66327;50.096;8.498;2024-03-02T02:01:18;10.73;;;5.10;;
77202;SDS011;66327;50.096;8.498;2024-03-02T02:03:44;9.98;;;5.03;;
77202;SDS011;66327;50.096;8.498;2024-03-02T02:06:10;9.65;;;5.40;;
77202;SDS011;66327;50.096;8.498;2024-03-02T02:08:37;8.65;;;4.38;;
77202;SDS011;66327;50.096;8.498;2024-03-02T02:11:04;8.77;;;4.18;;
77202;SDS011;66327;50.096;8.498;2024-03-02T02:13:30;9.80;;;5.18;;
77202;SDS011;66327;50.096;8.498;2024-03-02T02:16:03;9.82;;;4.60;;
77202;SDS011;66327;50.096;8.498;2024-03-02T02:18:30;10.63;;;4.85;;
77202;SDS011;66327;50.096;8.498;2024-03-02T02:20:56;8.38;;;4.93;;
77202;SDS011;66327;50.096;8.498;2024-03-02T02:23:22;11.27;;;5.30;;
77202;SDS011;66327;50.096;8.498;2024-03-02T02:25:49;11.40;;;5.00;;
77202;SDS011;66327;50.096;8.498;2024-03-02T02:28:15;9.63;;;4.78;;
77202;SDS011;66327;50.096;8.498;2024-03-02T02:30:41;8.93;;;4.95;;
77202;SDS011;66327;50.096;8.498;2024-03-02T02:33:08;10.35;;;4.90;;
77202;SDS011;66327;50.096;8.498;2024-03-02T02:35:35;10.85;;;5.78;;
77202;SDS011;66327;50.096;8.498;2024-03-02T02:38:01;9.48;;;5.40;;
77202;SDS011;66327;50.096;8.498;2024-03-02T02:40:29;9.43;;;4.75;;
77202;SDS011;66327;50.096;8.498;2024-03-02T02:42:58;9.32;;;4.78;;
77202;SDS011;66327;50.096;8.498;2024-03-02T02:45:27;12.40;;;5.35;;
77202;SDS011;66327;50.096;8.498;2024-03-02T02:47:54;7.93;;;3.80;;
77202;SDS011;66327;50.096;8.498;2024-03-02T02:50:20;10.98;;;5.35;;
77202;SDS011;66327;50.096;8.498;2024-03-02T02:52:47;11.98;;;5.28;;
77202;SDS011;66327;50.096;8.498;2024-03-02T02:55:13;11.68;;;5.72;;
77202;SDS011;66327;50.096;8.498;2024-03-02T02:57:40;10.20;;;5.63;;
77202;SDS011;66327;50.096;8.498;2024-03-02T03:00:09;11.65;;;6.40;;
77202;SDS011;66327;50.096;8.498;2024-03-02T03:02:37;14.55;;;6.65;;
77202;SDS011;66327;50.096;8.498;2024-03-02T03:05:05;10.98;;;4.97;;
77202;SDS011;66327;50.096;8.498;2024-03-02T03:07:32;13.75;;;5.78;;
77202;SDS011;66327;50.096;8.498;2024-03-02T03:10:00;13.32;;;7.13;;
77202;SDS011;66327;50.096;8.498;2024-03-02T03:12:26;13.40;;;6.60;;
77202;SDS011;66327;50.096;8.498;2024-03-02T03:14:53;14.40;;;7.05;;
77202;SDS011;66327;50.096;8.498;2024-03-02T03:17:20;13.15;;;6.90;;
77202;SDS011;66327;50.096;8.498;2024-03-02T03:19:47;15.90;;;6.65;;
77202;SDS011;66327;50.096;8.498;2024-03-02T03:22:13;11.40;;;5.85;;
77202;SDS011;66327;50.096;8.498;2024-03-02T03:24:39;13.52;;;6.78;;
77202;SDS011;66327;50.096;8.498;2024-03-02T03:27:06;11.60;;;6.05;;
77202;SDS011;66327;50.096;8.498;2024-03-02T03:29:32;11.90;;;5.82;;
77202;SDS011;66327;50.096;8.498;2024-03-02T03:31:59;15.05;;;7.70;;
77202;SDS011;66327;50.096;8.498;2024-03-02T03:34:25;16.05;;;7.55;;
77202;SDS011;66327;50.096;8.498;2024-03-02T03:36:51;12.32;;;6.32;;
77202;SDS011;66327;50.096;8.498;2024-03-02T03:39:18;14.48;;;6.05;;
77202;SDS011;66327;50.096;8.498;2024-03-02T03:41:44;14.07;;;6.63;;
77202;SDS011;66327;50.096;8.498;2024-03-02T03:44:10;14.98;;;7.00;;
77202;SDS011;66327;50.096;8.498;2024-03-02T03:46:40;14.18;;;6.90;;
77202;SDS011;66327;50.096;8.498;2024-03-02T03:49:06;12.18;;;6.38;;
77202;SDS011;66327;50.096;8.498;2024-03-02T03:51:33;15.50;;;7.00;;
77202;SDS011;66327;50.096;8.498;2024-03-02T03:54:00;13.55;;;6.60;;
77202;SDS011;66327;50.096;8.498;2024-03-02T03:56:26;19.08;;;7.22;;
77202;SDS011;66327;50.096;8.498;2024-03-02T03:58:52;16.00;;;7.43;;
77202;SDS011;66327;50.096;8.498;2024-03-02T04:01:19;12.27;;;6.53;;
77202;SDS011;66327;50.096;8.498;2024-03-02T04:03:45;17.20;;;7.35;;
77202;SDS011;66327;50.096;8.498;2024-03-02T04:06:12;14.57;;;6.07;;
77202;SDS011;66327;50.096;8.498;2024-03-02T04:08:41;14.57;;;6.88;;
77202;SDS011;66327;50.096;8.498;2024-03-02T04:11:07;14.20;;;6.80;;
77202;SDS011;66327;50.096;8.498;2024-03-02T04:13:34;16.83;;;7.28;;
77202;SDS011;66327;50.096;8.498;2024-03-02T04:16:00;12.75;;;6.78;;
77202;SDS011;66327;50.096;8.498;2024-03-02T04:18:26;15.15;;;6.88;;
77202;SDS011;66327;50.096;8.498;2024-03-02T04:20:53;13.45;;;6.90;;
77202;SDS011;66327;50.096;8.498;2024-03-02T04:23:19;18.77;;;8.77;;
77202;SDS011;66327;50.096;8.498;2024-03-02T04:25:45;17.15;;;8.15;;
77202;SDS011;66327;50.096;8.498;2024-03-02T04:28:12;16.58;;;7.82;;
77202;SDS011;66327;50.096;8.498;2024-03-02T04:30:38;16.58;;;7.55;;
77202;SDS011;66327;50.096;8.498;2024-03-02T04:33:05;13.57;;;6.88;;
77202;SDS011;66327;50.096;8.498;2024-03-02T04:35:33;15.13;;;7.22;;
77202;SDS011;66327;50.096;8.498;2024-03-02T04:37:59;13.80;;;6.32;;
77202;SDS011;66327;50.096;8.498;2024-03-02T04:40:26;17.48;;;7.15;;
77202;SDS011;66327;50.096;8.498;2024-03-02T04:42:52;14.25;;;6.72;;
77202;SDS011;66327;50.096;8.498;2024-03-02T04:45:18;13.95;;;6.47;;
77202;SDS011;66327;50.096;8.498;2024-03-02T04:47:45;15.98;;;7.65;;
77202;SDS011;66327;50.096;8.498;2024-03-02T04:50:15;14.30;;;6.82;;
77202;SDS011;66327;50.096;8.498;2024-03-02T04:52:41;14.27;;;6.72;;
77202;SDS011;66327;50.096;8.498;2024-03-02T04:55:07;16.05;;;6.70;;
77202;SDS011;66327;50.096;8.498;2024-03-02T04:57:51;15.05;;;5.70;;
77202;SDS011;66327;50.096;8.498;2024-03-02T05:00:21;17.55;;;7.20;;
77202;SDS011;66327;50.096;8.498;2024-03-02T05:02:47;16.48;;;6.88;;
77202;SDS011;66327;50.096;8.498;2024-03-02T05:05:13;16.95;;;7.25;;
77202;SDS011;66327;50.096;8.498;2024-03-02T05:07:41;16.67;;;7.50;;
77202;SDS011;66327;50.096;8.498;2024-03-02T05:10:10;20.08;;;7.82;;
77202;SDS011;66327;50.096;8.498;2024-03-02T05:12:38;15.10;;;6.72;;
77202;SDS011;66327;50.096;8.498;2024-03-02T05:15:22;16.40;;;7.07;;
77202;SDS011;66327;50.096;8.498;2024-03-02T05:17:49;14.10;;;7.20;;
77202;SDS011;66327;50.096;8.498;2024-03-02T05:20:15;17.20;;;7.45;;
77202;SDS011;66327;50.096;8.498;2024-03-02T05:22:41;15.57;;;6.80;;
77202;SDS011;66327;50.096;8.498;2024-03-02T05:25:08;14.80;;;7.15;;
77202;SDS011;66327;50.096;8.498;2024-03-02T05:27:36;15.80;;;7.50;;
77202;SDS011;66327;50.096;8.498;2024-03-02T05:30:02;12.45;;;6.47;;
77202;SDS011;66327;50.096;8.498;2024-03-02T05:32:29;16.55;;;6.88;;
77202;SDS011;66327;50.096;8.498;2024-03-02T05:34:56;14.95;;;6.68;;
77202;SDS011;66327;50.096;8.498;2024-03-02T05:37:22;17.98;;;7.95;;
77202;SDS011;66327;50.096;8.498;2024-03-02T05:39:48;11.25;;;6.60;;
77202;SDS011;66327;50.096;8.498;2024-03-02T05:42:15;14.43;;;6.90;;
77202;SDS011;66327;50.096;8.498;2024-03-02T05:44:43;14.57;;;7.55;;
77202;SDS011;66327;50.096;8.498;2024-03-02T05:47:09;18.17;;;7.85;;
77202;SDS011;66327;50.096;8.498;2024-03-02T05:49:35;12.90;;;6.40;;
77202;SDS011;66327;50.096;8.498;2024-03-02T05:52:02;14.20;;;6.05;;
77202;SDS011;66327;50.096;8.498;2024-03-02T05:54:29;15.68;;;7.35;;
77202;SDS011;66327;50.096;8.498;2024-03-02T05:56:55;16.70;;;6.65;;
77202;SDS011;66327;50.096;8.498;2024-03-02T05:59:22;15.73;;;6.82;;
77202;SDS011;66327;50.096;8.498;2024-03-02T06:01:48;14.93;;;6.75;;
77202;SDS011;66327;50.096;8.498;2024-03-02T06:04:18;17.38;;;7.03;;
77202;SDS011;66327;50.096;8.498;2024-03-02T06:06:44;13.98;;;6.18;;
77202;SDS011;66327;50.096;8.498;2024-03-02T06:09:11;17.58;;;7.35;;
77202;SDS011;66327;50.096;8.498;2024-03-02T06:11:40;18.63;;;6.80;;
77202;SDS011;66327;50.096;8.498;2024-03-02T06:14:08;14.02;;;6.93;;
77202;SDS011;66327;50.096;8.498;2024-03-02T06:16:34;13.57;;;6.45;;
77202;SDS011;66327;50.096;8.498;2024-03-02T06:19:03;20.42;;;7.55;;
77202;SDS011;66327;50.096;8.498;2024-03-02T06:21:31;14.00;;;7.63;;
77202;SDS011;66327;50.096;8.498;2024-03-02T06:24:00;16.88;;;7.18;;
77202;SDS011;66327;50.096;8.498;2024-03-02T06:26:27;12.52;;;5.88;;
77202;SDS011;66327;50.096;8.498;2024-03-02T06:28:57;16.02;;;7.45;;
77202;SDS011;66327;50.096;8.498;2024-03-02T06:31:26;15.90;;;7.22;;
77202;SDS011;66327;50.096;8.498;2024-03-02T06:33:52;16.98;;;7.05;;
77202;SDS011;66327;50.096;8.498;2024-03-02T06:36:20;16.08;;;7.43;;
77202;SDS011;66327;50.096;8.498;2024-03-02T06:38:48;18.65;;;6.57;;
77202;SDS011;66327;50.096;8.498;2024-03-02T06:41:15;14.98;;;7.25;;
77202;SDS011;66327;50.096;8.498;2024-03-02T06:43:45;15.90;;;6.95;;
77202;SDS011;66327;50.096;8.498;2024-03-02T06:46:11;18.33;;;6.68;;
77202;SDS011;66327;50.096;8.498;2024-03-02T06:48:41;16.17;;;7.47;;
77202;SDS011;66327;50.096;8.498;2024-03-02T06:51:07;17.75;;;8.30;;
77202;SDS011;66327;50.096;8.498;2024-03-02T06:53:36;18.08;;;8.40;;
77202;SDS011;66327;50.096;8.498;2024-03-02T06:56:02;18.25;;;7.72;;
77202;SDS011;66327;50.096;8.498;2024-03-02T06:58:29;24.20;;;8.45;;
77202;SDS011;66327;50.096;8.498;2024-03-02T07:00:55;19.10;;;7.90;;
77202;SDS011;66327;50.096;8.498;2024-03-02T07:03:21;16.45;;;7.85;;
77202;SDS011;66327;50.096;8.498;2024-03-02T07:05:47;17.27;;;7.85;;
77202;SDS011;66327;50.096;8.498;2024-03-02T07:08:17;16.10;;;7.57;;
77202;SDS011;66327;50.096;8.498;2024-03-02T07:10:43;21.50;;;8.65;;
77202;SDS011;66327;50.096;8.498;2024-03-02T07:13:09;19.83;;;9.82;;
77202;SDS011;66327;50.096;8.498;2024-03-02T07:15:35;22.08;;;9.48;;
77202;SDS011;66327;50.096;8.498;2024-03-02T07:18:34;18.35;;;8.88;;
77202;SDS011;66327;50.096;8.498;2024-03-02T07:21:07;20.63;;;9.70;;
77202;SDS011;66327;50.096;8.498;2024-03-02T07:23:33;20.17;;;8.65;;
77202;SDS011;66327;50.096;8.498;2024-03-02T07:26:02;19.40;;;9.43;;
77202;SDS011;66327;50.096;8.498;2024-03-02T07:28:32;22.85;;;8.90;;
77202;SDS011;66327;50.096;8.498;2024-03-02T07:30:59;26.90;;;9.65;;
77202;SDS011;66327;50.096;8.498;2024-03-02T07:33:27;22.67;;;9.40;;
77202;SDS011;66327;50.096;8.498;2024-03-02T07:35:54;25.73;;;10.43;;
77202;SDS011;66327;50.096;8.498;2024-03-02T07:38:28;16.83;;;8.32;;
77202;SDS011;66327;50.096;8.498;2024-03-02T07:40:55;21.50;;;9.27;;
77202;SDS011;66327;50.096;8.498;2024-03-02T07:43:21;22.23;;;10.57;;
77202;SDS011;66327;50.096;8.498;2024-03-02T07:45:48;21.50;;;9.52;;
77202;SDS011;66327;50.096;8.498;2024-03-02T07:48:14;21.83;;;10.65;;
77202;SDS011;66327;50.096;8.498;2024-03-02T07:50:43;19.48;;;9.95;;
77202;SDS011;66327;50.096;8.498;2024-03-02T07:53:09;22.40;;;10.15;;
77202;SDS011;66327;50.096;8.498;2024-03-02T07:55:36;22.58;;;10.13;;
77202;SDS011;66327;50.096;8.498;2024-03-02T07:58:02;22.65;;;9.68;;
77202;SDS011;66327;50.096;8.498;2024-03-02T08:00:29;23.13;;;11.07;;
77202;SDS011;66327;50.096;8.498;2024-03-02T08:02:55;19.92;;;9.73;;
77202;SDS011;66327;50.096;8.498;2024-03-02T08:05:22;23.27;;;10.68;;
77202;SDS011;66327;50.096;8.498;2024-03-02T08:07:48;22.85;;;10.20;;
77202;SDS011;66327;50.096;8.498;2024-03-02T08:10:18;22.00;;;10.98;;
77202;SDS011;66327;50.096;8.498;2024-03-02T08:12:46;22.48;;;10.10;;
77202;SDS011;66327;50.096;8.498;2024-03-02T08:15:12;15.45;;;8.18;;
77202;SDS011;66327;50.096;8.498;2024-03-02T08:17:39;21.48;;;9.60;;
77202;SDS011;66327;50.096;8.498;2024-03-02T08:20:11;19.48;;;9.50;;
77202;SDS011;66327;50.096;8.498;2024-03-02T08:22:38;17.48;;;8.82;;
77202;SDS011;66327;50.096;8.498;2024-03-02T08:25:04;22.38;;;10.07;;
77202;SDS011;66327;50.096;8.498;2024-03-02T08:27:33;24.17;;;10.13;;
77202;SDS011;66327;50.096;8.498;2024-03-02T08:30:01;25.38;;;10.75;;
77202;SDS011;66327;50.096;8.498;2024-03-02T08:32:30;18.95;;;9.65;;
77202;SDS011;66327;50.096;8.498;2024-03-02T08:34:57;19.83;;;9.38;;
77202;SDS011;66327;50.096;8.498;2024-03-02T08:37:24;19.30;;;9.18;;
77202;SDS011;66327;50.096;8.498;2024-03-02T08:39:50;16.23;;;8.80;;
77202;SDS011;66327;50.096;8.498;2024-03-02T08:42:16;21.95;;;10.82;;
77202;SDS011;66327;50.096;8.498;2024-03-02T08:44:45;18.30;;;9.60;;
77202;SDS011;66327;50.096;8.498;2024-03-02T08:47:11;20.55;;;9.98;;
77202;SDS011;66327;50.096;8.498;2024-03-02T08:49:40;19.05;;;9.68;;
77202;SDS011;66327;50.096;8.498;2024-03-02T08:52:06;18.67;;;9.73;;
77202;SDS011;66327;50.096;8.498;2024-03-02T08:54:33;19.15;;;9.18;;
77202;SDS011;66327;50.096;8.498;2024-03-02T08:57:00;16.73;;;9.02;;
77202;SDS011;66327;50.096;8.498;2024-03-02T08:59:27;18.67;;;9.45;;
77202;SDS011;66327;50.096;8.498;2024-03-02T09:01:54;15.77;;;8.27;;
77202;SDS011;66327;50.096;8.498;2024-03-02T09:04:21;19.25;;;8.98;;
77202;SDS011;66327;50.096;8.498;2024-03-02T09:06:53;19.67;;;10.02;;
77202;SDS011;66327;50.096;8.498;2024-03-02T09:09:19;20.95;;;9.40;;
77202;SDS011;66327;50.096;8.498;2024-03-02T09:11:46;18.20;;;8.63;;
77202;SDS011;66327;50.096;8.498;2024-03-02T09:14:12;20.05;;;9.32;;
77202;SDS011;66327;50.096;8.498;2024-03-02T09:16:49;19.20;;;9.38;;
77202;SDS011;66327;50.096;8.498;2024-03-02T09:19:16;18.33;;;9.70;;
77202;SDS011;66327;50.096;8.498;2024-03-02T09:21:42;18.13;;;8.80;;
77202;SDS011;66327;50.096;8.498;2024-03-02T09:24:10;20.10;;;9.00;;
77202;SDS011;66327;50.096;8.498;2024-03-02T09:26:37;17.20;;;7.80;;
77202;SDS011;66327;50.096;8.498;2024-03-02T09:29:06;17.85;;;8.80;;
77202;SDS011;66327;50.096;8.498;2024-03-02T09:31:32;17.48;;;8.75;;
77202;SDS011;66327;50.096;8.498;2024-03-02T09:33:58;16.85;;;8.30;;
77202;SDS011;66327;50.096;8.498;2024-03-02T09:36:24;14.52;;;7.30;;
77202;SDS011;66327;50.096;8.498;2024-03-02T09:38:51;18.50;;;9.68;;
77202;SDS011;66327;50.096;8.498;2024-03-02T09:41:18;16.42;;;9.05;;
77202;SDS011;66327;50.096;8.498;2024-03-02T09:43:44;18.40;;;9.10;;
77202;SDS011;66327;50.096;8.498;2024-03-02T09:46:10;20.70;;;9.93;;
77202;SDS011;66327;50.096;8.498;2024-03-02T09:48:37;17.77;;;8.77;;
77202;SDS011;66327;50.096;8.498;2024-03-02T09:51:04;17.30;;;8.65;;
77202;SDS011;66327;50.096;8.498;2024-03-02T09:53:31;16.05;;;9.07;;
77202;SDS011;66327;50.096;8.498;2024-03-02T09:55:58;13.05;;;6.70;;
77202;SDS011;66327;50.096;8.498;2024-03-02T09:58:24;14.32;;;7.68;;
77202;SDS011;66327;50.096;8.498;2024-03-02T10:00:51;14.30;;;7.88;;
77202;SDS011;66327;50.096;8.498;2024-03-02T10:03:20;17.75;;;8.30;;
77202;SDS011;66327;50.096;8.498;2024-03-02T10:05:48;14.50;;;7.82;;
77202;SDS011;66327;50.096;8.498;2024-03-02T10:08:14;15.18;;;7.80;;
77202;SDS011;66327;50.096;8.498;2024-03-02T10:10:41;14.70;;;7.97;;
77202;SDS011;66327;50.096;8.498;2024-03-02T10:13:09;19.58;;;9.20;;
77202;SDS011;66327;50.096;8.498;2024-03-02T10:15:36;15.70;;;7.70;;
77202;SDS011;66327;50.096;8.498;2024-03-02T10:18:09;15.57;;;8.15;;
77202;SDS011;66327;50.096;8.498;2024-03-02T10:20:37;15.10;;;7.43;;
77202;SDS011;66327;50.096;8.498;2024-03-02T10:23:16;15.73;;;8.45;;
77202;SDS011;66327;50.096;8.498;2024-03-02T10:25:43;17.08;;;7.57;;
77202;SDS011;66327;50.096;8.498;2024-03-02T10:28:22;15.48;;;7.85;;
77202;SDS011;66327;50.096;8.498;2024-03-02T10:30:49;14.85;;;7.60;;
77202;SDS011;66327;50.096;8.498;2024-03-02T10:33:18;14.05;;;7.00;;
77202;SDS011;66327;50.096;8.498;2024-03-02T10:35:45;14.52;;;7.20;;
77202;SDS011;66327;50.096;8.498;2024-03-02T10:38:11;18.38;;;7.35;;
77202;SDS011;66327;50.096;8.498;2024-03-02T10:40:37;13.95;;;7.95;;
77202;SDS011;66327;50.096;8.498;2024-03-02T10:43:04;11.63;;;6.68;;
77202;SDS011;66327;50.096;8.498;2024-03-02T10:45:32;13.68;;;7.28;;
77202;SDS011;66327;50.096;8.498;2024-03-02T10:47:58;15.15;;;7.25;;
77202;SDS011;66327;50.096;8.498;2024-03-02T10:50:26;15.05;;;7.13;;
77202;SDS011;66327;50.096;8.498;2024-03-02T10:52:52;11.95;;;7.03;;
77202;SDS011;66327;50.096;8.498;2024-03-02T10:55:18;13.20;;;7.55;;
77202;SDS011;66327;50.096;8.498;2024-03-02T10:57:50;13.80;;;7.45;;
77202;SDS011;66327;50.096;8.498;2024-03-02T11:00:17;12.13;;;7.13;;
77202;SDS011;66327;50.096;8.498;2024-03-02T11:03:06;14.15;;;7.43;;
77202;SDS011;66327;50.096;8.498;2024-03-02T11:05:38;14.30;;;6.60;;
77202;SDS011;66327;50.096;8.498;2024-03-02T11:08:07;13.10;;;6.90;;
77202;SDS011;66327;50.096;8.498;2024-03-02T11:10:57;10.40;;;6.00;;
77202;SDS011;66327;50.096;8.498;2024-03-02T11:13:33;13.15;;;6.70;;
77202;SDS011;66327;50.096;8.498;2024-03-02T11:16:05;13.00;;;6.53;;
77202;SDS011;66327;50.096;8.498;2024-03-02T11:18:32;10.55;;;6.15;;
77202;SDS011;66327;50.096;8.498;2024-03-02T11:20:59;13.55;;;5.82;;
77202;SDS011;66327;50.096;8.498;2024-03-02T11:23:32;10.50;;;5.50;;
77202;SDS011;66327;50.096;8.498;2024-03-02T11:28:45;12.15;;;6.20;;
77202;SDS011;66327;50.096;8.498;2024-03-02T11:31:12;11.20;;;5.90;;
77202;SDS011;66327;50.096;8.498;2024-03-02T11:33:38;10.13;;;5.47;;
77202;SDS011;66327;50.096;8.498;2024-03-02T11:36:07;13.43;;;6.18;;
77202;SDS011;66327;50.096;8.498;2024-03-02T11:38:35;9.95;;;5.25;;
77202;SDS011;66327;50.096;8.498;2024-03-02T11:41:03;11.60;;;5.10;;
77202;SDS011;66327;50.096;8.498;2024-03-02T11:43:31;11.85;;;5.30;;
77202;SDS011;66327;50.096;8.498;2024-03-02T11:45:59;9.00;;;5.07;;
77202;SDS011;66327;50.096;8.498;2024-03-02T11:48:26;10.55;;;5.43;;
77202;SDS011;66327;50.096;8.498;2024-03-02T11:50:52;9.75;;;5.45;;
77202;SDS011;66327;50.096;8.498;2024-03-02T11:53:20;12.57;;;4.82;;
77202;SDS011;66327;50.096;8.498;2024-03-02T11:55:47;12.85;;;5.78;;
77202;SDS011;66327;50.096;8.498;2024-03-02T11:58:14;10.40;;;5.07;;
77202;SDS011;66327;50.096;8.498;2024-03-02T12:00:43;10.43;;;5.03;;
77202;SDS011;66327;50.096;8.498;2024-03-02T12:03:12;9.05;;;4.78;;
77202;SDS011;66327;50.096;8.498;2024-03-02T12:05:38;8.38;;;4.80;;
77202;SDS011;66327;50.096;8.498;2024-03-02T12:08:05;8.63;;;4.28;;
77202;SDS011;66327;50.096;8.498;2024-03-02T12:10:35;10.57;;;6.18;;
77202;SDS011;66327;50.096;8.498;2024-03-02T12:13:03;11.57;;;6.47;;
77202;SDS011;66327;50.096;8.498;2024-03-02T12:15:33;9.13;;;5.32;;
77202;SDS011;66327;50.096;8.498;2024-03-02T12:18:00;9.80;;;5.07;;
77202;SDS011;66327;50.096;8.498;2024-03-02T12:20:30;9.68;;;5.68;;
77202;SDS011;66327;50.096;8.498;2024-03-02T12:23:00;10.13;;;5.00;;
77202;SDS011;66327;50.096;8.498;2024-03-02T12:25:26;9.38;;;5.70;;
77202;SDS011;66327;50.096;8.498;2024-03-02T12:27:54;9.30;;;4.38;;
77202;SDS011;66327;50.096;8.498;2024-03-02T12:30:21;9.77;;;5.00;;
77202;SDS011;66327;50.096;8.498;2024-03-02T12:32:50;9.60;;;4.82;;
77202;SDS011;66327;50.096;8.498;2024-03-02T12:35:18;8.57;;;4.07;;
77202;SDS011;66327;50.096;8.498;2024-03-02T12:37:44;8.82;;;4.45;;
77202;SDS011;66327;50.096;8.498;2024-03-02T12:40:11;7.80;;;4.40;;
77202;SDS011;66327;50.096;8.498;2024-03-02T12:42:38;7.50;;;4.50;;
77202;SDS011;66327;50.096;8.498;2024-03-02T12:45:07;8.57;;;4.88;;
77202;SDS011;66327;50.096;8.498;2024-03-02T12:47:35;10.35;;;4.15;;
77202;SDS011;66327;50.096;8.498;2024-03-02T12:50:04;7.97;;;4.60;;
77202;SDS011;66327;50.096;8.498;2024-03-02T12:52:31;9.07;;;4.57;;
77202;SDS011;66327;50.096;8.498;2024-03-02T12:55:02;9.30;;;4.18;;
77202;SDS011;66327;50.096;8.498;2024-03-02T12:57:33;9.88;;;4.03;;
77202;SDS011;66327;50.096;8.498;2024-03-02T13:00:04;11.48;;;3.63;;
77202;SDS011;66327;50.096;8.498;2024-03-02T13:02:35;7.82;;;4.38;;
77202;SDS011;66327;50.096;8.498;2024-03-02T13:05:02;7.47;;;3.55;;
77202;SDS011;66327;50.096;8.498;2024-03-02T13:07:28;8.10;;;4.53;;
77202;SDS011;66327;50.096;8.498;2024-03-02T13:09:55;8.13;;;4.18;;
77202;SDS011;66327;50.096;8.498;2024-03-02T13:12:22;8.52;;;4.43;;
77202;SDS011;66327;50.096;8.498;2024-03-02T13:14:49;7.78;;;4.00;;
77202;SDS011;66327;50.096;8.498;2024-03-02T13:17:17;8.32;;;4.35;;
77202;SDS011;66327;50.096;8.498;2024-03-02T13:19:50;9.05;;;4.43;;
77202;SDS011;66327;50.096;8.498;2024-03-02T13:24:44;8.05;;;4.30;;
77202;SDS011;66327;50.096;8.498;2024-03-02T13:27:10;8.32;;;4.43;;
77202;SDS011;66327;50.096;8.498;2024-03-02T13:29:37;7.50;;;4.00;;
77202;SDS011;66327;50.096;8.498;2024-03-02T13:32:06;8.10;;;4.65;;
77202;SDS011;66327;50.096;8.498;2024-03-02T13:34:32;6.95;;;4.20;;
77202;SDS011;66327;50.096;8.498;2024-03-02T13:37:02;7.22;;;4.20;;
77202;SDS011;66327;50.096;8.498;2024-03-02T13:39:33;10.82;;;5.30;;
77202;SDS011;66327;50.096;8.498;2024-03-02T13:42:01;9.73;;;4.90;;
77202;SDS011;66327;50.096;8.498;2024-03-02T13:44:35;9.57;;;4.60;;
77202;SDS011;66327;50.096;8.498;2024-03-02T13:47:04;9.00;;;4.60;;
77202;SDS011;66327;50.096;8.498;2024-03-02T13:49:31;8.55;;;4.38;;
77202;SDS011;66327;50.096;8.498;2024-03-02T13:52:06;10.27;;;4.78;;
77202;SDS011;66327;50.096;8.498;2024-03-02T13:54:44;9.38;;;4.53;;
77202;SDS011;66327;50.096;8.498;2024-03-02T13:57:11;7.72;;;4.50;;
77202;SDS011;66327;50.096;8.498;2024-03-02T13:59:37;6.55;;;3.80;;
77202;SDS011;66327;50.096;8.498;2024-03-02T14:02:04;6.47;;;3.88;;
77202;SDS011;66327;50.096;8.498;2024-03-02T14:04:32;7.38;;;3.72;;
77202;SDS011;66327;50.096;8.498;2024-03-02T14:06:59;8.75;;;4.40;;
77202;SDS011;66327;50.096;8.498;2024-03-02T14:11:54;7.07;;;3.58;;
77202;SDS011;66327;50.096;8.498;2024-03-02T14:14:20;7.88;;;4.15;;
77202;SDS011;66327;50.096;8.498;2024-03-02T14:16:46;5.80;;;3.80;;
77202;SDS011;66327;50.096;8.498;2024-03-02T14:19:13;7.63;;;3.50;;
77202;SDS011;66327;50.096;8.498;2024-03-02T14:21:41;6.25;;;3.72;;
77202;SDS011;66327;50.096;8.498;2024-03-02T14:24:07;6.32;;;2.88;;
77202;SDS011;66327;50.096;8.498;2024-03-02T14:26:33;4.80;;;2.95;;
77202;SDS011;66327;50.096;8.498;2024-03-02T14:29:00;5.35;;;3.05;;
77202;SDS011;66327;50.096;8.498;2024-03-02T14:31:29;7.20;;;3.30;;
77202;SDS011;66327;50.096;8.498;2024-03-02T14:34:10;5.15;;;2.97;;
77202;SDS011;66327;50.096;8.498;2024-03-02T14:36:40;6.35;;;3.10;;
77202;SDS011;66327;50.096;8.498;2024-03-02T14:39:09;6.30;;;3.15;;
77202;SDS011;66327;50.096;8.498;2024-03-02T14:41:36;7.90;;;3.88;;
77202;SDS011;66327;50.096;8.498;2024-03-02T14:44:03;5.95;;;3.50;;
77202;SDS011;66327;50.096;8.498;2024-03-02T14:46:29;6.15;;;3.35;;
77202;SDS011;66327;50.096;8.498;2024-03-02T14:48:58;6.60;;;3.42;;
77202;SDS011;66327;50.096;8.498;2024-03-02T14:51:24;7.47;;;3.55;;
77202;SDS011;66327;50.096;8.498;2024-03-02T14:53:52;9.15;;;3.42;;
77202;SDS011;66327;50.096;8.498;2024-03-02T14:56:18;5.65;;;3.10;;